Time;durP1;ratioP1;P1;durP2;ratioP2;P2;SDS_P1;SDS_P2;PMS_P1;PMS_P2;Temp;Humidity;BMP_temperature;BMP_pressure;BME280_temperature;BME280_humidity;BME280_pressure;Samples;Min_cycle;Max_cycle;Signal;HPM_P1;HPM_P2
2023/10/25 00:01:39;;;;;;;;;;;;;;;;;;4997697;28;19991;-71
2023/10/25 00:04:05;;;;;;;;;;;;;;;;;;4998046;28;19993;-72
2023/10/25 00:06:31;;;;;;;;;;;;;;;;;;4996687;28;19990;-74
2023/10/25 00:08:57;;;;;;;;;;;;;;;;;;4994755;28;20562;-74
2023/10/25 00:11:23;;;;;;;;;;;;;;;;;;4995020;28;19987;-73
2023/10/25 00:13:49;;;;;;;;;;;;;;;;;;4994700;28;20019;-74
2023/10/25 00:16:15;;;;;;;;;;;;;;;;;;4994045;28;20094;-73
2023/10/25 00:18:41;;;;;;;;;;;;;;;;;;4994946;28;20466;-74
2023/10/25 00:21:07;;;;;;;;;;;;;;;;;;4994597;28;20001;-73
2023/10/25 00:23:33;;;;;;;;;;;;;;;;;;4994706;28;19991;-73
2023/10/25 00:25:59;;;;;;;;;;;;;;;;;;4994702;28;20106;-71
2023/10/25 00:28:25;;;;;;;;;;;;;;;;;;4994783;28;20002;-73
2023/10/25 00:30:51;;;;;;;;;;;;;;;;;;4994742;28;19991;-72
2023/10/25 00:33:17;;;;;;;;;;;;;;;;;;4994171;28;20054;-72
2023/10/25 00:35:43;;;;;;;;;;;;;;;;;;4994444;28;20030;-72
2023/10/25 00:38:09;;;;;;;;;;;;;;;;;;4994550;28;19995;-72
2023/10/25 00:40:35;;;;;;;;;;;;;;;;;;4994464;28;19987;-74
2023/10/25 00:43:01;;;;;;;;;;;;;;;;;;4994445;28;19990;-72
2023/10/25 00:45:27;;;;;;;;;;;;;;;;;;4994308;28;19998;-72
2023/10/25 00:47:53;;;;;;;;;;;;;;;;;;4994348;28;20033;-72
2023/10/25 00:50:19;;;;;;;;;;;;;;;;;;4994059;28;19990;-71
2023/10/25 00:52:45;;;;;;;;;;;;;;;;;;4994304;28;19995;-74
2023/10/25 00:55:11;;;;;;;;;;;;;;;;;;4994121;28;20085;-73
2023/10/25 00:57:36;;;;;;;;;;;;;;;;;;4994220;28;19991;-73
2023/10/25 01:00:02;;;;;;;;;;;;;;;;;;4994152;28;19998;-73
2023/10/25 01:02:28;;;;;;;;;;;;;;;;;;4993861;28;19991;-73
2023/10/25 01:04:54;;;;;;;;;;;;;;;;;;4993741;28;19986;-73
2023/10/25 01:07:20;;;;;;;;;;;;;;;;;;4994122;28;20124;-73
2023/10/25 01:09:46;;;;;;;;;;;;;;;;;;4993873;28;20053;-74
2023/10/25 01:12:12;;;;;;;;;;;;;;;;;;4993831;28;20525;-73
2023/10/25 01:14:38;;;;;;;;;;;;;;;;;;4993599;28;20018;-73
2023/10/25 01:17:04;;;;;;;;;;;;;;;;;;4993407;28;19991;-76
2023/10/25 01:19:30;;;;;;;;;;;;;;;;;;4992332;28;19990;-73
2023/10/25 01:21:56;;;;;;;;;;;;;;;;;;4992293;28;20002;-74
2023/10/25 01:24:22;;;;;;;;;;;;;;;;;;4993630;28;20077;-75
2023/10/25 01:26:48;;;;;;;;;;;;;;;;;;4991918;28;19997;-75
2023/10/25 01:29:14;;;;;;;;;;;;;;;;;;4993541;28;19998;-73
2023/10/25 01:31:40;;;;;;;;;;;;;;;;;;4993162;28;20020;-74
2023/10/25 01:34:06;;;;;;;;;;;;;;;;;;4992863;28;20056;-74
2023/10/25 01:36:32;;;;;;;;;;;;;;;;;;4993371;28;19990;-75
2023/10/25 01:38:58;;;;;;;;;;;;;;;;;;4993007;28;20001;-73
2023/10/25 01:41:24;;;;;;;;;;;;;;;;;;4993231;28;19991;-74
2023/10/25 01:43:50;;;;;;;;;;;;;;;;;;4992998;28;20332;-74
2023/10/25 01:46:16;;;;;;;;;;;;;;;;;;4993055;28;20038;-74
2023/10/25 01:48:43;;;;;;;;;;;;;;;;;;4992648;28;19994;-74
2023/10/25 01:51:09;;;;;;;;;;;;;;;;;;4993144;28;19995;-74
2023/10/25 01:53:35;;;;;;;;;;;;;;;;;;4992819;28;20030;-74
2023/10/25 01:56:01;;;;;;;;;;;;;;;;;;4992942;28;19990;-73
2023/10/25 01:58:27;;;;;;;;;;;;;;;;;;4992787;28;19986;-74
2023/10/25 02:00:53;;;;;;;;;;;;;;;;;;4992758;28;19995;-73
2023/10/25 02:03:19;;;;;;;;;;;;;;;;;;4992699;28;20045;-74
2023/10/25 02:05:45;;;;;;;;;;;;;;;;;;4992802;28;19994;-74
2023/10/25 02:08:11;;;;;;;;;;;;;;;;;;4992731;28;20022;-74
2023/10/25 02:10:37;;;;;;;;;;;;;;;;;;4992305;28;19997;-73
2023/10/25 02:13:03;;;;;;;;;;;;;;;;;;4991236;28;20014;-73
2023/10/25 02:15:29;;;;;;;;;;;;;;;;;;4992390;28;20348;-73
2023/10/25 02:17:55;;;;;;;;;;;;;;;;;;4992440;28;19991;-74
2023/10/25 02:20:21;;;;;;;;;;;;;;;;;;4992727;28;20002;-74
2023/10/25 02:22:47;;;;;;;;;;;;;;;;;;4992576;28;19991;-73
2023/10/25 02:25:13;;;;;;;;;;;;;;;;;;4992499;28;20137;-75
2023/10/25 02:27:39;;;;;;;;;;;;;;;;;;4992511;28;20085;-76
2023/10/25 02:30:05;;;;;;;;;;;;;;;;;;4991897;28;19997;-74
2023/10/25 02:32:31;;;;;;;;;;;;;;;;;;4992057;28;20026;-74
2023/10/25 02:34:57;;;;;;;;;;;;;;;;;;4992284;28;20060;-74
2023/10/25 02:37:23;;;;;;;;;;;;;;;;;;4992349;28;20081;-76
2023/10/25 02:39:49;;;;;;;;;;;;;;;;;;4992218;28;19987;-75
2023/10/25 02:42:15;;;;;;;;;;;;;;;;;;4992128;28;20033;-75
2023/10/25 02:44:41;;;;;;;;;;;;;;;;;;4992296;28;19986;-74
2023/10/25 02:47:07;;;;;;;;;;;;;;;;;;4992258;28;19991;-75
2023/10/25 02:49:33;;;;;;;;;;;;;;;;;;4992302;28;19998;-74
2023/10/25 02:51:59;;;;;;;;;;;;;;;;;;4992520;28;19990;-74
2023/10/25 02:54:25;;;;;;;;;;;;;;;;;;4992317;28;20405;-75
2023/10/25 02:56:51;;;;;;;;;;;;;;;;;;4992453;28;20029;-75
2023/10/25 02:59:17;;;;;;;;;;;;;;;;;;4992032;28;19997;-75
2023/10/25 03:01:43;;;;;;;;;;;;;;;;;;4992280;28;19987;-76
2023/10/25 03:04:09;;;;;;;;;;;;;;;;;;4992247;28;20041;-77
2023/10/25 03:06:35;;;;;;;;;;;;;;;;;;4990854;28;20081;-74
2023/10/25 03:09:01;;;;;;;;;;;;;;;;;;4992193;28;19990;-74
2023/10/25 03:11:26;;;;;;;;;;;;;;;;;;4991847;28;20002;-74
2023/10/25 03:13:52;;;;;;;;;;;;;;;;;;4991993;28;20010;-74
2023/10/25 03:16:18;;;;;;;;;;;;;;;;;;4991905;28;19998;-72
2023/10/25 03:18:44;;;;;;;;;;;;;;;;;;4992279;28;20085;-72
2023/10/25 03:21:10;;;;;;;;;;;;;;;;;;4991785;28;20026;-73
2023/10/25 03:23:36;;;;;;;;;;;;;;;;;;4991721;28;19994;-75
2023/10/25 03:26:03;;;;;;;;;;;;;;;;;;4991784;28;20049;-74
2023/10/25 03:28:29;;;;;;;;;;;;;;;;;;4991832;28;20443;-74
2023/10/25 03:30:55;;;;;;;;;;;;;;;;;;4991722;28;19991;-75
2023/10/25 03:33:21;;;;;;;;;;;;;;;;;;4991444;28;20022;-73
2023/10/25 03:35:47;;;;;;;;;;;;;;;;;;4991851;28;20057;-75
2023/10/25 03:38:13;;;;;;;;;;;;;;;;;;4991905;28;19994;-75
2023/10/25 03:40:39;;;;;;;;;;;;;;;;;;4991840;28;20078;-75
2023/10/25 03:43:04;;;;;;;;;;;;;;;;;;4994121;28;19987;-75
2023/10/25 03:45:30;;;;;;;;;;;;;;;;;;4995356;28;19994;-75
2023/10/25 03:47:56;;;;;;;;;;;;;;;;;;4995409;28;20006;-73
2023/10/25 03:50:22;;;;;;;;;;;;;;;;;;4995237;28;20026;-74
2023/10/25 03:52:48;;;;;;;;;;;;;;;;;;4995294;28;20076;-75
2023/10/25 03:55:14;;;;;;;;;;;;;;;;;;4995265;28;19998;-75
2023/10/25 03:57:40;;;;;;;;;;;;;;;;;;4995194;28;19991;-74
2023/10/25 04:00:06;;;;;;;;;;;;;;;;;;4994906;28;19995;-74
2023/10/25 04:02:32;;;;;;;;;;;;;;;;;;4994951;28;19990;-74
2023/10/25 04:04:58;;;;;;;;;;;;;;;;;;4995061;28;19991;-75
2023/10/25 04:07:24;;;;;;;;;;;;;;;;;;4995210;28;19998;-74
2023/10/25 04:09:50;;;;;;;;;;;;;;;;;;4994991;28;20479;-74
2023/10/25 04:12:16;;;;;;;;;;;;;;;;;;4994885;28;19990;-75
2023/10/25 04:14:43;;;;;;;;;;;;;;;;;;4994847;28;20483;-69
2023/10/25 04:17:09;;;;;;;;;;;;;;;;;;4994703;28;19987;-72
2023/10/25 04:19:35;;;;;;;;;;;;;;;;;;4994971;28;20072;-73
2023/10/25 04:22:01;;;;;;;;;;;;;;;;;;4994739;28;20455;-72
2023/10/25 04:24:27;;;;;;;;;;;;;;;;;;4994504;28;19995;-73
2023/10/25 04:26:53;;;;;;;;;;;;;;;;;;4994455;28;20451;-73
2023/10/25 04:29:18;;;;;;;;;;;;;;;;;;4994531;28;20032;-72
2023/10/25 04:31:44;;;;;;;;;;;;;;;;;;4994418;28;20002;-73
2023/10/25 04:34:11;;;;;;;;;;;;;;;;;;4994020;28;20027;-72
2023/10/25 04:36:38;;;;;;;;;;;;;;;;;;4994547;28;19987;-75
2023/10/25 04:39:04;;;;;;;;;;;;;;;;;;4994286;28;20547;-73
2023/10/25 04:41:31;;;;;;;;;;;;;;;;;;4994382;28;19997;-73
2023/10/25 04:43:57;;;;;;;;;;;;;;;;;;4994331;28;20029;-73
2023/10/25 04:46:23;;;;;;;;;;;;;;;;;;4994188;28;20033;-73
2023/10/25 04:48:49;;;;;;;;;;;;;;;;;;4994133;28;19987;-73
2023/10/25 04:51:15;;;;;;;;;;;;;;;;;;4992722;28;19990;-72
2023/10/25 04:53:41;;;;;;;;;;;;;;;;;;4993747;28;20014;-72
2023/10/25 04:56:07;;;;;;;;;;;;;;;;;;4994132;28;20038;-72
2023/10/25 04:58:33;;;;;;;;;;;;;;;;;;4994153;28;20056;-73
2023/10/25 05:00:59;;;;;;;;;;;;;;;;;;4994551;28;20463;-72
2023/10/25 05:03:25;;;;;;;;;;;;;;;;;;4993968;28;19986;-74
2023/10/25 05:05:51;;;;;;;;;;;;;;;;;;4994014;28;20074;-73
2023/10/25 05:08:17;;;;;;;;;;;;;;;;;;4993895;28;19994;-73
2023/10/25 05:10:43;;;;;;;;;;;;;;;;;;4993757;28;19987;-73
2023/10/25 05:13:09;;;;;;;;;;;;;;;;;;4993801;28;20014;-74
2023/10/25 05:15:37;;;;;;;;;;;;;;;;;;4993842;28;20052;-73
2023/10/25 05:18:03;;;;;;;;;;;;;;;;;;4993593;28;20035;-73
2023/10/25 05:20:30;;;;;;;;;;;;;;;;;;4993552;28;20053;-73
2023/10/25 05:22:56;;;;;;;;;;;;;;;;;;4993644;28;19995;-74
2023/10/25 05:25:22;;;;;;;;;;;;;;;;;;4993496;28;19987;-74
2023/10/25 05:27:48;;;;;;;;;;;;;;;;;;4993763;28;19995;-73
2023/10/25 05:30:15;;;;;;;;;;;;;;;;;;4993582;28;20118;-73
2023/10/25 05:32:43;;;;;;;;;;;;;;;;;;4993222;28;20022;-73
2023/10/25 05:35:09;;;;;;;;;;;;;;;;;;4993088;28;20015;-71
2023/10/25 05:37:35;;;;;;;;;;;;;;;;;;4993184;28;20045;-71
2023/10/25 05:40:01;;;;;;;;;;;;;;;;;;5002673;28;19995;-72
2023/10/25 05:42:27;;;;;;;;;;;;;;;;;;5010537;28;20631;-71
2023/10/25 05:44:56;;;;;;;;;;;;;;;;;;5006672;28;20090;-71
2023/10/25 05:47:22;;;;;;;;;;;;;;;;;;5012195;28;20041;-72
2023/10/25 05:49:48;;;;;;;;;;;;;;;;;;5009894;28;20021;-71
2023/10/25 05:52:14;;;;;;;;;;;;;;;;;;5012384;28;20021;-72
2023/10/25 05:54:40;;;;;;;;;;;;;;;;;;5012251;28;20493;-72
2023/10/25 05:57:06;;;;;;;;;;;;;;;;;;5012682;28;19994;-72
2023/10/25 05:59:32;;;;;;;;;;;;;;;;;;5012514;28;19990;-71
2023/10/25 06:01:58;;;;;;;;;;;;;;;;;;5012562;28;19990;-72
2023/10/25 06:04:24;;;;;;;;;;;;;;;;;;5009604;28;19991;-72
2023/10/25 06:06:50;;;;;;;;;;;;;;;;;;5010241;28;20093;-73
2023/10/25 06:09:16;;;;;;;;;;;;;;;;;;5012391;28;19986;-72
2023/10/25 06:11:42;;;;;;;;;;;;;;;;;;5010680;28;19998;-71
2023/10/25 06:14:08;;;;;;;;;;;;;;;;;;5012115;28;20015;-74
2023/10/25 06:16:34;;;;;;;;;;;;;;;;;;5008152;28;20087;-79
2023/10/25 06:19:00;;;;;;;;;;;;;;;;;;5010271;28;20017;-70
2023/10/25 06:21:26;;;;;;;;;;;;;;;;;;5012990;28;19990;-83
2023/10/25 06:23:52;;;;;;;;;;;;;;;;;;5005196;28;20069;-83
2023/10/25 06:26:18;;;;;;;;;;;;;;;;;;5012010;28;20033;-81
2023/10/25 06:28:44;;;;;;;;;;;;;;;;;;5012195;28;19986;-84
2023/10/25 06:31:10;;;;;;;;;;;;;;;;;;5012460;28;19986;-83
2023/10/25 06:33:35;;;;;;;;;;;;;;;;;;5011233;28;20026;-83
2023/10/25 06:36:01;;;;;;;;;;;;;;;;;;5011812;28;19990;-82
2023/10/25 06:38:27;;;;;;;;;;;;;;;;;;5010961;28;20006;-81
2023/10/25 06:40:53;;;;;;;;;;;;;;;;;;5012269;28;19997;-82
2023/10/25 06:43:19;;;;;;;;;;;;;;;;;;4994371;28;19991;-84
2023/10/25 06:45:45;;;;;;;;;;;;;;;;;;5012536;28;20013;-82
2023/10/25 06:48:11;;;;;;;;;;;;;;;;;;5001316;28;20021;-73
2023/10/25 06:50:37;;;;;;;;;;;;;;;;;;4995044;28;20034;-73
2023/10/25 06:53:03;;;;;;;;;;;;;;;;;;5011597;28;19997;-74
2023/10/25 06:55:29;;;;;;;;;;;;;;;;;;5010921;28;20001;-74
2023/10/25 06:57:55;;;;;;;;;;;;;;;;;;5011598;28;20363;-73
2023/10/25 07:00:22;;;;;;;;;;;;;;;;;;5009674;28;20469;-74
2023/10/25 07:02:48;;;;;;;;;;;;;;;;;;5011690;28;19990;-74
2023/10/25 07:05:14;;;;;;;;;;;;;;;;;;5011671;28;19987;-75
2023/10/25 07:07:39;;;;;;;;;;;;;;;;;;5026378;28;19994;-72
2023/10/25 07:10:05;;;;;;;;;;;;;;;;;;5011068;28;19994;-74
2023/10/25 07:12:32;;;;;;;;;;;;;;;;;;5009386;28;19990;-74
2023/10/25 07:14:58;;;;;;;;;;;;;;;;;;5009522;28;20022;-77
2023/10/25 07:17:24;;;;;;;;;;;;;;;;;;5013183;28;20413;-73
2023/10/25 07:19:50;;;;;;;;;;;;;;;;;;5013707;28;20442;-75
2023/10/25 07:22:16;;;;;;;;;;;;;;;;;;5015546;28;19994;-75
2023/10/25 07:24:42;;;;;;;;;;;;;;;;;;5014714;28;19986;-67
2023/10/25 07:27:08;;;;;;;;;;;;;;;;;;5013877;28;20139;-75
2023/10/25 07:29:36;;;;;;;;;;;;;;;;;;5015270;28;20046;-76
2023/10/25 07:32:02;;;;;;;;;;;;;;;;;;5015171;28;20003;-75
2023/10/25 07:34:28;;;;;;;;;;;;;;;;;;5012837;28;20010;-78
2023/10/25 07:36:54;;;;;;;;;;;;;;;;;;5013711;28;20465;-80
2023/10/25 07:39:20;;;;;;;;;;;;;;;;;;5014233;28;19994;-68
2023/10/25 07:41:46;;;;;;;;;;;;;;;;;;5013975;28;19990;-67
2023/10/25 07:44:12;;;;;;;;;;;;;;;;;;5014797;28;19991;-68
2023/10/25 07:46:38;;;;;;;;;;;;;;;;;;5014820;28;19994;-67
2023/10/25 07:49:04;;;;;;;;;;;;;;;;;;5014791;28;19991;-68
2023/10/25 07:51:30;;;;;;;;;;;;;;;;;;5014947;28;20429;-68
2023/10/25 07:53:56;;;;;;;;;;;;;;;;;;5014942;28;20121;-68
2023/10/25 07:56:22;;;;;;;;;;;;;;;;;;4996769;28;20466;-68
2023/10/25 07:58:48;;;;;;;;;;;;;;;;;;5014652;28;20040;-68
2023/10/25 08:01:14;;;;;;;;;;;;;;;;;;5014643;28;19990;-68
2023/10/25 08:03:39;;;;;;;;;;;;;;;;;;5014418;28;20087;-68
2023/10/25 08:06:07;;;;;;;;;;;;;;;;;;5014567;28;19998;-66
2023/10/25 08:08:33;;;;;;;;;;;;;;;;;;5014701;28;19990;-66
2023/10/25 08:10:59;;;;;;;;;;;;;;;;;;5014596;28;20012;-68
2023/10/25 08:13:25;;;;;;;;;;;;;;;;;;5014564;28;20073;-68
2023/10/25 08:15:50;;;;;;;;;;;;;;;;;;5014332;28;19990;-67
2023/10/25 08:18:16;;;;;;;;;;;;;;;;;;5014368;28;19992;-67
2023/10/25 08:20:42;;;;;;;;;;;;;;;;;;5014244;28;19995;-66
2023/10/25 08:23:08;;;;;;;;;;;;;;;;;;5014432;28;20442;-67
2023/10/25 08:25:35;;;;;;;;;;;;;;;;;;5014407;28;19994;-69
2023/10/25 08:28:01;;;;;;;;;;;;;;;;;;5013824;28;20040;-68
2023/10/25 08:30:26;;;;;;;;;;;;;;;;;;5014265;28;20033;-70
2023/10/25 08:32:52;;;;;;;;;;;;;;;;;;5013793;28;20073;-70
2023/10/25 08:35:18;;;;;;;;;;;;;;;;;;5013819;28;20017;-67
2023/10/25 08:37:44;;;;;;;;;;;;;;;;;;5014234;28;19990;-69
2023/10/25 08:40:10;;;;;;;;;;;;;;;;;;5013776;28;19998;-68
2023/10/25 08:42:36;;;;;;;;;;;;;;;;;;5014002;28;19992;-69
2023/10/25 08:45:02;;;;;;;;;;;;;;;;;;5013773;28;19993;-69
2023/10/25 08:47:29;;;;;;;;;;;;;;;;;;5013564;28;19991;-69
2023/10/25 08:49:54;;;;;;;;;;;;;;;;;;5013678;28;19997;-70
2023/10/25 08:52:20;;;;;;;;;;;;;;;;;;5013691;28;20017;-69
2023/10/25 08:54:46;;;;;;;;;;;;;;;;;;5013682;28;20026;-69
2023/10/25 08:57:12;;;;;;;;;;;;;;;;;;5013696;28;20016;-70
2023/10/25 08:59:38;;;;;;;;;;;;;;;;;;5013513;28;20469;-70
2023/10/25 09:02:05;;;;;;;;;;;;;;;;;;5013670;28;19990;-70
2023/10/25 09:04:31;;;;;;;;;;;;;;;;;;5013649;28;19994;-70
2023/10/25 09:06:57;;;;;;;;;;;;;;;;;;5013409;28;20036;-71
2023/10/25 09:09:23;;;;;;;;;;;;;;;;;;5013235;28;19986;-72
2023/10/25 09:11:49;;;;;;;;;;;;;;;;;;5013410;28;20180;-71
2023/10/25 09:14:15;;;;;;;;;;;;;;;;;;5013290;28;20021;-71
2023/10/25 09:16:42;;;;;;;;;;;;;;;;;;5013212;28;19990;-72
2023/10/25 09:19:08;;;;;;;;;;;;;;;;;;5013253;28;20501;-71
2023/10/25 09:21:34;;;;;;;;;;;;;;;;;;5020127;28;20093;-73
2023/10/25 09:24:02;;;;;;;;;;;;;;;;;;5002036;28;19994;-67
2023/10/25 09:26:28;;;;;;;;;;;;;;;;;;5013204;28;19991;-68
2023/10/25 09:28:54;;;;;;;;;;;;;;;;;;5012865;28;20025;-68
2023/10/25 09:31:20;;;;;;;;;;;;;;;;;;5013067;28;19994;-68
2023/10/25 09:33:46;;;;;;;;;;;;;;;;;;5012526;28;20056;-68
2023/10/25 09:36:12;;;;;;;;;;;;;;;;;;5010738;28;20069;-67
2023/10/25 09:38:38;;;;;;;;;;;;;;;;;;5012636;28;20053;-67
2023/10/25 09:41:04;;;;;;;;;;;;;;;;;;5011759;28;20000;-68
2023/10/25 09:43:30;;;;;;;;;;;;;;;;;;5012095;28;19991;-68
2023/10/25 09:45:56;;;;;;;;;;;;;;;;;;5012016;28;19994;-68
2023/10/25 09:48:22;;;;;;;;;;;;;;;;;;5012185;28;20506;-68
2023/10/25 09:50:48;;;;;;;;;;;;;;;;;;5012122;28;20032;-68
2023/10/25 09:53:14;;;;;;;;;;;;;;;;;;5010979;28;19993;-67
2023/10/25 09:55:40;;;;;;;;;;;;;;;;;;5012280;28;19987;-68
2023/10/25 09:58:10;;;;;;;;;;;;;;;;;;5012443;28;20057;-68
2023/10/25 10:00:37;;;;;;;;;;;;;;;;;;5012614;28;19995;-69
2023/10/25 10:03:03;;;;;;;;;;;;;;;;;;5012386;28;20439;-67
2023/10/25 10:05:29;;;;;;;;;;;;;;;;;;5012115;28;19987;-67
2023/10/25 10:07:55;;;;;;;;;;;;;;;;;;5012243;28;19990;-68
2023/10/25 10:10:21;;;;;;;;;;;;;;;;;;5012705;28;20014;-68
2023/10/25 10:12:47;;;;;;;;;;;;;;;;;;5012150;28;19990;-68
2023/10/25 10:15:14;;;;;;;;;;;;;;;;;;5012327;28;20018;-68
2023/10/25 10:17:40;;;;;;;;;;;;;;;;;;5012657;28;20025;-67
2023/10/25 10:20:06;;;;;;;;;;;;;;;;;;5012363;28;20435;-68
2023/10/25 10:22:32;;;;;;;;;;;;;;;;;;5012307;28;20068;-68
2023/10/25 10:25:00;;;;;;;;;;;;;;;;;;5012064;28;20061;-67
2023/10/25 10:27:26;;;;;;;;;;;;;;;;;;5011738;28;20084;-68
2023/10/25 10:29:52;;;;;;;;;;;;;;;;;;5011587;28;20121;-68
2023/10/25 10:32:18;;;;;;;;;;;;;;;;;;4996093;28;20022;-68
2023/10/25 10:34:44;;;;;;;;;;;;;;;;;;4992428;28;20019;-73
2023/10/25 10:37:10;;;;;;;;;;;;;;;;;;4992220;28;19994;-72
2023/10/25 10:39:36;;;;;;;;;;;;;;;;;;4992465;28;19987;-73
2023/10/25 10:42:02;;;;;;;;;;;;;;;;;;4992196;28;19998;-71
2023/10/25 10:44:28;;;;;;;;;;;;;;;;;;4992381;28;20037;-74
2023/10/25 10:46:54;;;;;;;;;;;;;;;;;;4992135;28;20002;-73
2023/10/25 10:49:23;;;;;;;;;;;;;;;;;;4992483;28;20025;-74
2023/10/25 10:51:49;;;;;;;;;;;;;;;;;;4991862;28;20010;-72
2023/10/25 10:54:15;;;;;;;;;;;;;;;;;;4992132;28;20026;-73
2023/10/25 10:56:41;;;;;;;;;;;;;;;;;;4991964;28;20514;-75
2023/10/25 10:59:08;;;;;;;;;;;;;;;;;;4992057;28;19998;-70
2023/10/25 11:01:34;;;;;;;;;;;;;;;;;;4992084;28;20030;-73
2023/10/25 11:04:00;;;;;;;;;;;;;;;;;;4992014;28;19993;-71
2023/10/25 11:06:26;;;;;;;;;;;;;;;;;;4992188;28;19987;-74
2023/10/25 11:08:52;;;;;;;;;;;;;;;;;;4992055;28;20006;-73
2023/10/25 11:11:18;;;;;;;;;;;;;;;;;;4991906;28;20001;-73
2023/10/25 11:13:44;;;;;;;;;;;;;;;;;;4992200;28;20025;-72
2023/10/25 11:16:10;;;;;;;;;;;;;;;;;;4992342;28;20010;-74
2023/10/25 11:18:36;;;;;;;;;;;;;;;;;;4992212;28;19986;-72
2023/10/25 11:21:02;;;;;;;;;;;;;;;;;;4992032;28;20081;-71
2023/10/25 11:23:28;;;;;;;;;;;;;;;;;;4991815;28;20002;-72
2023/10/25 11:25:54;;;;;;;;;;;;;;;;;;4991736;28;19986;-72
2023/10/25 11:28:20;;;;;;;;;;;;;;;;;;4991924;28;20026;-72
2023/10/25 11:30:49;;;;;;;;;;;;;;;;;;4991814;28;20026;-71
2023/10/25 11:33:15;;;;;;;;;;;;;;;;;;5001565;28;20186;-73
2023/10/25 11:35:41;;;;;;;;;;;;;;;;;;5011358;28;20030;-72
2023/10/25 11:38:07;;;;;;;;;;;;;;;;;;5011578;28;19996;-73
2023/10/25 11:40:33;;;;;;;;;;;;;;;;;;5011355;28;20029;-73
2023/10/25 11:42:59;;;;;;;;;;;;;;;;;;5011091;28;20416;-72
2023/10/25 11:45:25;;;;;;;;;;;;;;;;;;5011400;28;19992;-71
2023/10/25 11:47:54;;;;;;;;;;;;;;;;;;5011245;28;20077;-72
2023/10/25 11:50:20;;;;;;;;;;;;;;;;;;5011395;28;20038;-72
2023/10/25 11:52:46;;;;;;;;;;;;;;;;;;5011022;28;20047;-72
2023/10/25 11:55:12;;;;;;;;;;;;;;;;;;5010836;28;20061;-71
2023/10/25 11:57:38;;;;;;;;;;;;;;;;;;5011396;28;20001;-73
2023/10/25 12:00:05;;;;;;;;;;;;;;;;;;5010971;28;19987;-72
2023/10/25 12:02:31;;;;;;;;;;;;;;;;;;5011094;28;20430;-75
2023/10/25 12:04:58;;;;;;;;;;;;;;;;;;5014528;28;19991;-73
2023/10/25 12:07:25;;;;;;;;;;;;;;;;;;5014605;28;20324;-73
2023/10/25 12:09:51;;;;;;;;;;;;;;;;;;5014898;28;19994;-73
2023/10/25 12:12:17;;;;;;;;;;;;;;;;;;5014607;28;19990;-72
2023/10/25 12:14:43;;;;;;;;;;;;;;;;;;5014696;28;20071;-72
2023/10/25 12:17:09;;;;;;;;;;;;;;;;;;5014518;28;20100;-72
2023/10/25 12:19:39;;;;;;;;;;;;;;;;;;5014491;28;19990;-74
2023/10/25 12:22:05;;;;;;;;;;;;;;;;;;5014443;28;19987;-72
2023/10/25 12:24:31;;;;;;;;;;;;;;;;;;5014117;28;19991;-74
2023/10/25 12:26:57;;;;;;;;;;;;;;;;;;5014214;28;20097;-74
2023/10/25 12:29:24;;;;;;;;;;;;;;;;;;5014127;28;19997;-74
2023/10/25 12:31:50;;;;;;;;;;;;;;;;;;5014129;28;19990;-72
2023/10/25 12:34:16;;;;;;;;;;;;;;;;;;5013831;28;20486;-74
2023/10/25 12:36:42;;;;;;;;;;;;;;;;;;5013273;28;19987;-74
2023/10/25 12:39:08;;;;;;;;;;;;;;;;;;5013504;28;20017;-73
2023/10/25 12:41:34;;;;;;;;;;;;;;;;;;5014086;28;20374;-72
2023/10/25 12:44:02;;;;;;;;;;;;;;;;;;5013771;28;19996;-73
2023/10/25 12:46:28;;;;;;;;;;;;;;;;;;5014380;28;20141;-73
2023/10/25 12:48:54;;;;;;;;;;;;;;;;;;5013938;28;19998;-73
2023/10/25 12:51:20;;;;;;;;;;;;;;;;;;5012622;28;20043;-75
2023/10/25 12:53:46;;;;;;;;;;;;;;;;;;5011900;28;20018;-73
2023/10/25 12:56:11;;;;;;;;;;;;;;;;;;5012184;28;20073;-72
2023/10/25 12:58:37;;;;;;;;;;;;;;;;;;4994615;28;20457;-73
2023/10/25 13:01:03;;;;;;;;;;;;;;;;;;5012946;28;19990;-73
2023/10/25 13:03:29;;;;;;;;;;;;;;;;;;5012848;28;20439;-73
2023/10/25 13:05:55;;;;;;;;;;;;;;;;;;5013179;28;19997;-73
2023/10/25 13:08:21;;;;;;;;;;;;;;;;;;5013725;28;20041;-72
2023/10/25 13:10:47;;;;;;;;;;;;;;;;;;5013416;28;19987;-73
2023/10/25 13:13:13;;;;;;;;;;;;;;;;;;5013498;28;20438;-74
2023/10/25 13:15:39;;;;;;;;;;;;;;;;;;5013209;28;20362;-73
2023/10/25 13:18:05;;;;;;;;;;;;;;;;;;5013910;28;19990;-73
2023/10/25 13:20:30;;;;;;;;;;;;;;;;;;5013107;28;20434;-74
2023/10/25 13:22:58;;;;;;;;;;;;;;;;;;5013166;28;19990;-74
2023/10/25 13:25:24;;;;;;;;;;;;;;;;;;5012945;28;20465;-73
2023/10/25 13:27:50;;;;;;;;;;;;;;;;;;5013415;28;19994;-73
2023/10/25 13:30:16;;;;;;;;;;;;;;;;;;5013080;28;19995;-73
2023/10/25 13:32:42;;;;;;;;;;;;;;;;;;5012710;28;20092;-73
2023/10/25 13:35:08;;;;;;;;;;;;;;;;;;5012773;28;20498;-73
2023/10/25 13:37:34;;;;;;;;;;;;;;;;;;5013013;28;20042;-74
2023/10/25 13:40:00;;;;;;;;;;;;;;;;;;5013094;28;20051;-73
2023/10/25 13:42:26;;;;;;;;;;;;;;;;;;5012757;28;19997;-74
2023/10/25 13:44:52;;;;;;;;;;;;;;;;;;5012912;28;19986;-73
2023/10/25 13:47:18;;;;;;;;;;;;;;;;;;5012880;28;20468;-73
2023/10/25 13:49:45;;;;;;;;;;;;;;;;;;5012954;28;20085;-73
2023/10/25 13:52:11;;;;;;;;;;;;;;;;;;5013066;28;19995;-73
2023/10/25 13:54:37;;;;;;;;;;;;;;;;;;5012562;28;20025;-72
2023/10/25 13:57:03;;;;;;;;;;;;;;;;;;5012665;28;19990;-72
2023/10/25 13:59:29;;;;;;;;;;;;;;;;;;5012734;28;20390;-73
2023/10/25 14:01:55;;;;;;;;;;;;;;;;;;5012749;28;19998;-73
2023/10/25 14:04:21;;;;;;;;;;;;;;;;;;5012877;28;20029;-72
2023/10/25 14:06:47;;;;;;;;;;;;;;;;;;5012393;28;20387;-73
2023/10/25 14:09:13;;;;;;;;;;;;;;;;;;5012521;28;19993;-73
2023/10/25 14:11:39;;;;;;;;;;;;;;;;;;5012500;28;20081;-72
2023/10/25 14:14:05;;;;;;;;;;;;;;;;;;5012225;28;20014;-73
2023/10/25 14:16:31;;;;;;;;;;;;;;;;;;5012225;28;20034;-73
2023/10/25 14:18:57;;;;;;;;;;;;;;;;;;5012419;28;19994;-73
2023/10/25 14:21:26;;;;;;;;;;;;;;;;;;5012702;28;20439;-73
2023/10/25 14:23:52;;;;;;;;;;;;;;;;;;5012199;28;20044;-73
2023/10/25 14:26:18;;;;;;;;;;;;;;;;;;5011921;28;20080;-74
2023/10/25 14:28:44;;;;;;;;;;;;;;;;;;5012433;28;19997;-73
2023/10/25 14:31:10;;;;;;;;;;;;;;;;;;5012201;28;19990;-72
2023/10/25 14:33:36;;;;;;;;;;;;;;;;;;5010868;28;20022;-73
2023/10/25 14:36:02;;;;;;;;;;;;;;;;;;5012128;28;20589;-76
2023/10/25 14:38:28;;;;;;;;;;;;;;;;;;5011658;28;19990;-73
2023/10/25 14:40:53;;;;;;;;;;;;;;;;;;4996566;28;19991;-72
2023/10/25 14:43:19;;;;;;;;;;;;;;;;;;4997136;28;19991;-67
2023/10/25 14:45:45;;;;;;;;;;;;;;;;;;5011759;28;20517;-67
2023/10/25 14:48:11;;;;;;;;;;;;;;;;;;5011561;28;19990;-68
2023/10/25 14:50:37;;;;;;;;;;;;;;;;;;5011824;28;20013;-67
2023/10/25 14:53:03;;;;;;;;;;;;;;;;;;5011128;28;19990;-67
2023/10/25 14:55:29;;;;;;;;;;;;;;;;;;5011360;28;20018;-66
2023/10/25 14:57:55;;;;;;;;;;;;;;;;;;5011489;28;19990;-66
2023/10/25 15:00:21;;;;;;;;;;;;;;;;;;5011590;28;19987;-67
2023/10/25 15:02:47;;;;;;;;;;;;;;;;;;5011914;28;20001;-67
2023/10/25 15:05:13;;;;;;;;;;;;;;;;;;5011277;28;20033;-67
2023/10/25 15:07:39;;;;;;;;;;;;;;;;;;5011536;28;20037;-68
2023/10/25 15:10:05;;;;;;;;;;;;;;;;;;5011281;28;20373;-69
2023/10/25 15:12:32;;;;;;;;;;;;;;;;;;5011588;28;19986;-69
2023/10/25 15:14:58;;;;;;;;;;;;;;;;;;5010894;28;20104;-64
2023/10/25 15:17:24;;;;;;;;;;;;;;;;;;5011400;28;20045;-66
2023/10/25 15:19:50;;;;;;;;;;;;;;;;;;5011285;28;20029;-67
2023/10/25 15:22:16;;;;;;;;;;;;;;;;;;5011497;28;19991;-66
2023/10/25 15:24:43;;;;;;;;;;;;;;;;;;5011198;28;20025;-68
2023/10/25 15:27:09;;;;;;;;;;;;;;;;;;5010809;28;20369;-66
2023/10/25 15:29:35;;;;;;;;;;;;;;;;;;5008347;28;20081;-67
2023/10/25 15:32:01;;;;;;;;;;;;;;;;;;5026586;28;20060;-67
2023/10/25 15:34:27;;;;;;;;;;;;;;;;;;5010637;28;20018;-68
2023/10/25 15:36:53;;;;;;;;;;;;;;;;;;5011215;28;19998;-68
2023/10/25 15:39:19;;;;;;;;;;;;;;;;;;5013730;28;19998;-68
2023/10/25 15:41:45;;;;;;;;;;;;;;;;;;5014992;28;20081;-67
2023/10/25 15:44:11;;;;;;;;;;;;;;;;;;5014512;28;20366;-67
2023/10/25 15:46:36;;;;;;;;;;;;;;;;;;5014917;28;19986;-68
2023/10/25 15:49:02;;;;;;;;;;;;;;;;;;5014486;28;19995;-66
2023/10/25 15:51:28;;;;;;;;;;;;;;;;;;5014810;28;20001;-67
2023/10/25 15:53:54;;;;;;;;;;;;;;;;;;5014236;28;20020;-66
2023/10/25 15:56:20;;;;;;;;;;;;;;;;;;5014897;28;19997;-67
2023/10/25 15:58:46;;;;;;;;;;;;;;;;;;5014518;28;19991;-68
2023/10/25 16:01:12;;;;;;;;;;;;;;;;;;5014917;28;20044;-67
2023/10/25 16:03:38;;;;;;;;;;;;;;;;;;5014499;28;19998;-67
2023/10/25 16:06:04;;;;;;;;;;;;;;;;;;5014409;28;19994;-65
2023/10/25 16:08:30;;;;;;;;;;;;;;;;;;5014389;28;19986;-67
2023/10/25 16:10:56;;;;;;;;;;;;;;;;;;5014535;28;19990;-66
2023/10/25 16:13:22;;;;;;;;;;;;;;;;;;5013833;28;19990;-70
2023/10/25 16:15:48;;;;;;;;;;;;;;;;;;5012576;28;20048;-72
2023/10/25 16:18:14;;;;;;;;;;;;;;;;;;5012592;28;20077;-72
2023/10/25 16:20:40;;;;;;;;;;;;;;;;;;5010204;28;20030;-73
2023/10/25 16:23:06;;;;;;;;;;;;;;;;;;5008851;28;20001;-72
2023/10/25 16:25:32;;;;;;;;;;;;;;;;;;5003554;28;20006;-72
2023/10/25 16:27:58;;;;;;;;;;;;;;;;;;5009699;28;19994;-71
2023/10/25 16:30:24;;;;;;;;;;;;;;;;;;4993307;28;19994;-71
2023/10/25 16:32:50;;;;;;;;;;;;;;;;;;5013615;28;20025;-72
2023/10/25 16:35:16;;;;;;;;;;;;;;;;;;5012376;28;20079;-73
2023/10/25 16:37:44;;;;;;;;;;;;;;;;;;5013360;28;20001;-73